CES0319 ZGSZ-ZSSS
Flight info
| Callsign | CES0319 |
|---|---|
| Flight time | 1h 41m |
| Altitude | 33100 |
| Route | K0869S1190 IDUMA9ZD IDUMA W41 DOPKU G471 EGEDA/K0882S1160 G471 PLT/K0867S1190 A599 ELNEX G204 JTN DCT |
| Aircraft | A339/H-SADE1E2E3GHIJ3J5M1P2RWXY/LB2D1 |
Departure
| Time | 2026-04-26 01:23 |
|---|---|
| Airport | Shenzhen Bao'an International Airport (ZGSZ) |
Arrival
| Time | 2026-04-26 03:05 |
|---|---|
| Airport | Shanghai Hongqiao International Airport (ZSSS) |
| Time | Latitude | Longitude | Altitude | Speed | Heading |
|---|---|---|---|---|---|
| 2026-04-26 00:55 | 22.64212 | 113.79761 | 29 ft | 0 kts | 62° |
| 2026-04-26 01:10 | 22.64211 | 113.79758 | 29 ft | 1 kts | 62° |
| 2026-04-26 01:10 | 22.64204 | 113.79745 | 29 ft | 2 kts | 62° |
| 2026-04-26 01:10 | 22.64197 | 113.79730 | 29 ft | 2 kts | 62° |
| 2026-04-26 01:10 | 22.64190 | 113.79716 | 29 ft | 2 kts | 62° |
| 2026-04-26 01:11 | 22.64183 | 113.79702 | 29 ft | 2 kts | 62° |
| 2026-04-26 01:11 | 22.64176 | 113.79688 | 29 ft | 2 kts | 62° |
| 2026-04-26 01:11 | 22.64168 | 113.79673 | 29 ft | 2 kts | 62° |
| 2026-04-26 01:11 | 22.64162 | 113.79658 | 29 ft | 2 kts | 63° |
| 2026-04-26 01:12 | 22.64157 | 113.79643 | 29 ft | 2 kts | 90° |
| 2026-04-26 01:12 | 22.64159 | 113.79627 | 29 ft | 2 kts | 111° |
| 2026-04-26 01:12 | 22.64167 | 113.79614 | 29 ft | 2 kts | 133° |
| 2026-04-26 01:12 | 22.64177 | 113.79604 | 29 ft | 0 kts | 153° |
| 2026-04-26 01:13 | 22.64181 | 113.79602 | 29 ft | 0 kts | 154° |
| 2026-04-26 01:16 | 22.64179 | 113.79603 | 29 ft | 1 kts | 154° |
| 2026-04-26 01:16 | 22.64164 | 113.79610 | 29 ft | 3 kts | 154° |
| 2026-04-26 01:16 | 22.64137 | 113.79624 | 29 ft | 5 kts | 160° |
| 2026-04-26 01:16 | 22.64096 | 113.79627 | 29 ft | 6 kts | 197° |
| 2026-04-26 01:17 | 22.64062 | 113.79586 | 29 ft | 8 kts | 243° |
| 2026-04-26 01:17 | 22.64032 | 113.79527 | 29 ft | 9 kts | 233° |
| 2026-04-26 01:17 | 22.63972 | 113.79511 | 29 ft | 10 kts | 159° |
| 2026-04-26 01:17 | 22.63904 | 113.79547 | 29 ft | 11 kts | 153° |
| 2026-04-26 01:18 | 22.63829 | 113.79588 | 29 ft | 12 kts | 153° |
| 2026-04-26 01:18 | 22.63749 | 113.79633 | 29 ft | 13 kts | 152° |
| 2026-04-26 01:18 | 22.63664 | 113.79681 | 29 ft | 14 kts | 152° |
| 2026-04-26 01:18 | 22.63574 | 113.79731 | 29 ft | 14 kts | 152° |
| 2026-04-26 01:19 | 22.63480 | 113.79782 | 29 ft | 15 kts | 154° |
| 2026-04-26 01:19 | 22.63383 | 113.79835 | 29 ft | 15 kts | 153° |
| 2026-04-26 01:19 | 22.63284 | 113.79890 | 29 ft | 16 kts | 153° |
| 2026-04-26 01:19 | 22.63182 | 113.79946 | 29 ft | 16 kts | 153° |
| 2026-04-26 01:20 | 22.63078 | 113.80003 | 29 ft | 16 kts | 153° |
| 2026-04-26 01:20 | 22.62973 | 113.80061 | 29 ft | 17 kts | 153° |
| 2026-04-26 01:20 | 22.62874 | 113.80115 | 29 ft | 17 kts | 152° |
| 2026-04-26 01:20 | 22.62776 | 113.80167 | 29 ft | 17 kts | 154° |
| 2026-04-26 01:21 | 22.62667 | 113.80227 | 29 ft | 17 kts | 152° |
| 2026-04-26 01:21 | 22.62557 | 113.80287 | 29 ft | 17 kts | 152° |
| 2026-04-26 01:21 | 22.62464 | 113.80277 | 29 ft | 14 kts | 233° |
| 2026-04-26 01:21 | 22.62421 | 113.80182 | 29 ft | 13 kts | 267° |
| 2026-04-26 01:22 | 22.62480 | 113.80110 | 29 ft | 14 kts | 332° |
| 2026-04-26 01:22 | 22.62569 | 113.80060 | 29 ft | 14 kts | 333° |
| 2026-04-26 01:22 | 22.62767 | 113.79954 | 29 ft | 61 kts | 333° |
| 2026-04-26 01:22 | 22.63342 | 113.79633 | 29 ft | 121 kts | 335° |
| 2026-04-26 01:23 | 22.64259 | 113.79139 | 35 ft | 168 kts | 335° |
| 2026-04-26 01:23 | 22.65324 | 113.78573 | 509 ft | 171 kts | 335° |
| 2026-04-26 01:23 | 22.66320 | 113.77899 | 1112 ft | 171 kts | 319° |
| 2026-04-26 01:23 | 22.67157 | 113.76987 | 1687 ft | 172 kts | 319° |
| 2026-04-26 01:24 | 22.68053 | 113.76074 | 2122 ft | 184 kts | 318° |
| 2026-04-26 01:24 | 22.69020 | 113.75079 | 2499 ft | 201 kts | 318° |
| 2026-04-26 01:24 | 22.70081 | 113.74001 | 2899 ft | 218 kts | 319° |
| 2026-04-26 01:24 | 22.71241 | 113.72849 | 3308 ft | 236 kts | 319° |
| 2026-04-26 01:25 | 22.72482 | 113.71624 | 3828 ft | 248 kts | 319° |
| 2026-04-26 01:25 | 22.73759 | 113.70370 | 4557 ft | 250 kts | 319° |
| 2026-04-26 01:25 | 22.75100 | 113.69199 | 5280 ft | 251 kts | 333° |
| 2026-04-26 01:25 | 22.76792 | 113.68741 | 5984 ft | 251 kts | 3° |
| 2026-04-26 01:26 | 22.78438 | 113.69249 | 6652 ft | 253 kts | 32° |
| 2026-04-26 01:26 | 22.79673 | 113.70610 | 7270 ft | 258 kts | 61° |
| 2026-04-26 01:26 | 22.80415 | 113.72377 | 7881 ft | 262 kts | 66° |
| 2026-04-26 01:26 | 22.81135 | 113.74208 | 8475 ft | 266 kts | 65° |
| 2026-04-26 01:27 | 22.81866 | 113.76051 | 9059 ft | 269 kts | 65° |
| 2026-04-26 01:27 | 22.82616 | 113.77915 | 9640 ft | 272 kts | 65° |
| 2026-04-26 01:27 | 22.83378 | 113.79800 | 10227 ft | 275 kts | 64° |
| 2026-04-26 01:27 | 22.84152 | 113.81703 | 10809 ft | 278 kts | 64° |
| 2026-04-26 01:28 | 22.84946 | 113.83645 | 11200 ft | 295 kts | 64° |
| 2026-04-26 01:28 | 22.85800 | 113.85738 | 11592 ft | 313 kts | 64° |
| 2026-04-26 01:28 | 22.86715 | 113.87978 | 11985 ft | 332 kts | 64° |
| 2026-04-26 01:28 | 22.87672 | 113.90327 | 12362 ft | 351 kts | 64° |
| 2026-04-26 01:29 | 22.88758 | 113.92751 | 12709 ft | 368 kts | 55° |
| 2026-04-26 01:29 | 22.90533 | 113.94787 | 13022 ft | 382 kts | 33° |
| 2026-04-26 01:29 | 22.93005 | 113.95991 | 13569 ft | 390 kts | 14° |
| 2026-04-26 01:29 | 22.95613 | 113.96730 | 14363 ft | 394 kts | 14° |
| 2026-04-26 01:30 | 22.98277 | 113.97552 | 15150 ft | 398 kts | 15° |
| 2026-04-26 01:30 | 23.00962 | 113.98394 | 15889 ft | 403 kts | 15° |
| 2026-04-26 01:30 | 23.03655 | 113.99242 | 16609 ft | 408 kts | 15° |
| 2026-04-26 01:30 | 23.06395 | 114.00102 | 17330 ft | 413 kts | 15° |
| 2026-04-26 01:31 | 23.09184 | 114.00976 | 18045 ft | 418 kts | 15° |
| 2026-04-26 01:31 | 23.11994 | 114.01859 | 18785 ft | 422 kts | 15° |
| 2026-04-26 01:31 | 23.14843 | 114.02751 | 19513 ft | 426 kts | 15° |
| 2026-04-26 01:31 | 23.17690 | 114.03643 | 20211 ft | 431 kts | 14° |
| 2026-04-26 01:32 | 23.20599 | 114.04552 | 20900 ft | 434 kts | 14° |
| 2026-04-26 01:32 | 23.23510 | 114.05463 | 21563 ft | 438 kts | 14° |
| 2026-04-26 01:32 | 23.26419 | 114.06371 | 22224 ft | 441 kts | 14° |
| 2026-04-26 01:32 | 23.29386 | 114.07297 | 22848 ft | 445 kts | 13° |
| 2026-04-26 01:33 | 23.32371 | 114.08228 | 23434 ft | 448 kts | 13° |
| 2026-04-26 01:33 | 23.35426 | 114.09184 | 24047 ft | 451 kts | 13° |
| 2026-04-26 01:33 | 23.38434 | 114.10126 | 24643 ft | 454 kts | 13° |
| 2026-04-26 01:33 | 23.41496 | 114.11085 | 25234 ft | 456 kts | 13° |
| 2026-04-26 01:34 | 23.44526 | 114.12030 | 25776 ft | 459 kts | 13° |
| 2026-04-26 01:34 | 23.47610 | 114.12997 | 26325 ft | 462 kts | 13° |
| 2026-04-26 01:34 | 23.50716 | 114.13972 | 26863 ft | 464 kts | 13° |
| 2026-04-26 01:34 | 23.53823 | 114.14945 | 27403 ft | 466 kts | 13° |
| 2026-04-26 01:35 | 23.56939 | 114.15924 | 28089 ft | 464 kts | 13° |
| 2026-04-26 01:35 | 23.60023 | 114.16894 | 28867 ft | 460 kts | 13° |
| 2026-04-26 01:35 | 23.63100 | 114.17862 | 29616 ft | 456 kts | 12° |
| 2026-04-26 01:35 | 23.66157 | 114.18825 | 30277 ft | 454 kts | 12° |
| 2026-04-26 01:36 | 23.69170 | 114.19774 | 30854 ft | 453 kts | 12° |
| 2026-04-26 01:36 | 23.72217 | 114.20732 | 31470 ft | 451 kts | 12° |
| 2026-04-26 01:36 | 23.75217 | 114.21678 | 31956 ft | 450 kts | 12° |
| 2026-04-26 01:37 | 23.81254 | 114.23581 | 32707 ft | 450 kts | 11° |
| 2026-04-26 01:37 | 23.84268 | 114.24532 | 33099 ft | 449 kts | 11° |
| 2026-04-26 01:37 | 23.87281 | 114.25479 | 33167 ft | 456 kts | 11° |
| 2026-04-26 01:38 | 23.93486 | 114.27429 | 33177 ft | 470 kts | 11° |
| 2026-04-26 01:38 | 23.99825 | 114.29430 | 33179 ft | 477 kts | 11° |
| 2026-04-26 01:39 | 24.06246 | 114.31464 | 33181 ft | 477 kts | 12° |
| 2026-04-26 01:39 | 24.12605 | 114.33478 | 33184 ft | 475 kts | 11° |
| 2026-04-26 01:40 | 24.19008 | 114.35510 | 33183 ft | 475 kts | 11° |
| 2026-04-26 01:40 | 24.25353 | 114.37524 | 33181 ft | 474 kts | 11° |
| 2026-04-26 01:41 | 24.31671 | 114.39531 | 33183 ft | 473 kts | 11° |
| 2026-04-26 01:41 | 24.38005 | 114.41545 | 33186 ft | 472 kts | 11° |
| 2026-04-26 01:42 | 24.44317 | 114.43553 | 33192 ft | 472 kts | 11° |
| 2026-04-26 01:42 | 24.50650 | 114.45572 | 33191 ft | 472 kts | 11° |
| 2026-04-26 01:43 | 24.56953 | 114.47581 | 33196 ft | 471 kts | 11° |
| 2026-04-26 01:43 | 24.63237 | 114.49587 | 33189 ft | 470 kts | 11° |
| 2026-04-26 01:44 | 24.69527 | 114.51596 | 33188 ft | 470 kts | 11° |
| 2026-04-26 01:44 | 24.75843 | 114.53616 | 33183 ft | 469 kts | 11° |
| 2026-04-26 01:45 | 24.82084 | 114.55615 | 33178 ft | 468 kts | 11° |
| 2026-04-26 01:45 | 24.88322 | 114.57615 | 33180 ft | 468 kts | 11° |
| 2026-04-26 01:46 | 24.94609 | 114.59634 | 33185 ft | 467 kts | 10° |
| 2026-04-26 01:46 | 25.00845 | 114.61636 | 33187 ft | 467 kts | 10° |
| 2026-04-26 01:47 | 25.07093 | 114.63644 | 33184 ft | 467 kts | 10° |
| 2026-04-26 01:47 | 25.13399 | 114.65675 | 33175 ft | 465 kts | 11° |
| 2026-04-26 01:48 | 25.19616 | 114.67677 | 33171 ft | 464 kts | 11° |
| 2026-04-26 01:48 | 25.25833 | 114.69682 | 33163 ft | 466 kts | 11° |
| 2026-04-26 01:49 | 25.32071 | 114.71697 | 33165 ft | 466 kts | 11° |
| 2026-04-26 01:49 | 25.38288 | 114.73706 | 33164 ft | 465 kts | 11° |
| 2026-04-26 01:50 | 25.44513 | 114.75721 | 33168 ft | 465 kts | 10° |
| 2026-04-26 01:50 | 25.50693 | 114.77724 | 33166 ft | 464 kts | 10° |
| 2026-04-26 01:51 | 25.56911 | 114.79741 | 33168 ft | 463 kts | 10° |
| 2026-04-26 01:51 | 25.63097 | 114.81750 | 33170 ft | 465 kts | 10° |
| 2026-04-26 01:52 | 25.69323 | 114.83772 | 33175 ft | 465 kts | 10° |
| 2026-04-26 01:52 | 25.75436 | 114.86318 | 33180 ft | 472 kts | 18° |
| 2026-04-26 01:53 | 25.81199 | 114.89887 | 33185 ft | 479 kts | 26° |
| 2026-04-26 01:53 | 25.86532 | 114.94479 | 33186 ft | 489 kts | 35° |
| 2026-04-26 01:54 | 25.91329 | 114.99886 | 33184 ft | 494 kts | 39° |
| 2026-04-26 01:54 | 25.96010 | 115.05461 | 33181 ft | 494 kts | 40° |
| 2026-04-26 01:55 | 26.00714 | 115.11071 | 33179 ft | 495 kts | 39° |
| 2026-04-26 01:55 | 26.05403 | 115.16661 | 33172 ft | 494 kts | 39° |
| 2026-04-26 01:56 | 26.10028 | 115.22173 | 33169 ft | 494 kts | 39° |
| 2026-04-26 01:56 | 26.14780 | 115.27841 | 33167 ft | 495 kts | 39° |
| 2026-04-26 01:57 | 26.19470 | 115.33443 | 33164 ft | 494 kts | 39° |
| 2026-04-26 01:57 | 26.24146 | 115.39037 | 33170 ft | 494 kts | 39° |
| 2026-04-26 01:58 | 26.28819 | 115.44634 | 33175 ft | 494 kts | 39° |
| 2026-04-26 01:58 | 26.33495 | 115.50239 | 33180 ft | 494 kts | 39° |
| 2026-04-26 01:59 | 26.38152 | 115.55828 | 33184 ft | 493 kts | 39° |
| 2026-04-26 01:59 | 26.42816 | 115.61433 | 33176 ft | 495 kts | 39° |
| 2026-04-26 02:00 | 26.47547 | 115.67126 | 33170 ft | 495 kts | 40° |
| 2026-04-26 02:00 | 26.52232 | 115.72772 | 33174 ft | 495 kts | 40° |
| 2026-04-26 02:01 | 26.56886 | 115.78391 | 33175 ft | 493 kts | 39° |
| 2026-04-26 02:01 | 26.61556 | 115.84032 | 33178 ft | 494 kts | 39° |
| 2026-04-26 02:02 | 26.66200 | 115.89650 | 33177 ft | 495 kts | 39° |
| 2026-04-26 02:02 | 26.70877 | 115.95315 | 33174 ft | 494 kts | 40° |
| 2026-04-26 02:03 | 26.75509 | 116.00932 | 33174 ft | 494 kts | 39° |
| 2026-04-26 02:03 | 26.80155 | 116.06577 | 33173 ft | 493 kts | 39° |
| 2026-04-26 02:04 | 26.84803 | 116.12229 | 33178 ft | 494 kts | 40° |
| 2026-04-26 02:04 | 26.89446 | 116.17883 | 33180 ft | 494 kts | 40° |
| 2026-04-26 02:05 | 26.94084 | 116.23521 | 33179 ft | 492 kts | 39° |
| 2026-04-26 02:05 | 26.98742 | 116.29125 | 33185 ft | 492 kts | 39° |
| 2026-04-26 02:06 | 27.03416 | 116.34757 | 33183 ft | 494 kts | 39° |
| 2026-04-26 02:06 | 27.08077 | 116.40384 | 33180 ft | 493 kts | 39° |
| 2026-04-26 02:07 | 27.12777 | 116.46073 | 33176 ft | 492 kts | 39° |
| 2026-04-26 02:07 | 27.17440 | 116.51720 | 33168 ft | 493 kts | 39° |
| 2026-04-26 02:08 | 27.22117 | 116.57368 | 33163 ft | 493 kts | 39° |
| 2026-04-26 02:08 | 27.26871 | 116.62897 | 33167 ft | 492 kts | 38° |
| 2026-04-26 02:09 | 27.31642 | 116.68423 | 33166 ft | 493 kts | 39° |
| 2026-04-26 02:09 | 27.36413 | 116.73977 | 33170 ft | 494 kts | 39° |
| 2026-04-26 02:10 | 27.41183 | 116.79544 | 33165 ft | 494 kts | 39° |
| 2026-04-26 02:10 | 27.45938 | 116.85108 | 33179 ft | 494 kts | 39° |
| 2026-04-26 02:11 | 27.50705 | 116.90696 | 33181 ft | 495 kts | 39° |
| 2026-04-26 02:11 | 27.55444 | 116.96204 | 33187 ft | 493 kts | 38° |
| 2026-04-26 02:12 | 27.60250 | 117.01746 | 33196 ft | 493 kts | 39° |
| 2026-04-26 02:12 | 27.65034 | 117.07275 | 33185 ft | 494 kts | 39° |
| 2026-04-26 02:13 | 27.69843 | 117.12848 | 33183 ft | 495 kts | 39° |
| 2026-04-26 02:13 | 27.74637 | 117.18409 | 33184 ft | 495 kts | 39° |
| 2026-04-26 02:14 | 27.79428 | 117.23979 | 33189 ft | 495 kts | 39° |
| 2026-04-26 02:14 | 27.84226 | 117.29553 | 33192 ft | 497 kts | 39° |
| 2026-04-26 02:15 | 27.89030 | 117.35156 | 33189 ft | 497 kts | 39° |
| 2026-04-26 02:15 | 27.93851 | 117.40783 | 33192 ft | 498 kts | 39° |
| 2026-04-26 02:16 | 27.98636 | 117.46373 | 33176 ft | 497 kts | 40° |
| 2026-04-26 02:16 | 28.03480 | 117.52040 | 33171 ft | 497 kts | 39° |
| 2026-04-26 02:17 | 28.08292 | 117.57680 | 33169 ft | 498 kts | 39° |
| 2026-04-26 02:17 | 28.13133 | 117.63355 | 33169 ft | 500 kts | 40° |
| 2026-04-26 02:18 | 28.18017 | 117.69099 | 33166 ft | 500 kts | 40° |
| 2026-04-26 02:18 | 28.22862 | 117.74800 | 33155 ft | 499 kts | 40° |
| 2026-04-26 02:19 | 28.27652 | 117.80442 | 33150 ft | 500 kts | 40° |
| 2026-04-26 02:19 | 28.32460 | 117.86118 | 33150 ft | 500 kts | 40° |
| 2026-04-26 02:20 | 28.37306 | 117.91843 | 33150 ft | 501 kts | 40° |
| 2026-04-26 02:20 | 28.42108 | 117.97530 | 33142 ft | 501 kts | 40° |
| 2026-04-26 02:21 | 28.46878 | 118.03359 | 33138 ft | 502 kts | 41° |
| 2026-04-26 02:21 | 28.51605 | 118.09195 | 33136 ft | 502 kts | 41° |
| 2026-04-26 02:22 | 28.56326 | 118.15025 | 33139 ft | 503 kts | 41° |
| 2026-04-26 02:22 | 28.61067 | 118.20878 | 33142 ft | 502 kts | 41° |
| 2026-04-26 02:23 | 28.65797 | 118.26721 | 33140 ft | 501 kts | 41° |
| 2026-04-26 02:23 | 28.70529 | 118.32571 | 33138 ft | 502 kts | 41° |
| 2026-04-26 02:24 | 28.75230 | 118.38398 | 33140 ft | 501 kts | 41° |
| 2026-04-26 02:24 | 28.79925 | 118.44223 | 33141 ft | 501 kts | 41° |
| 2026-04-26 02:25 | 28.84652 | 118.50095 | 33142 ft | 502 kts | 41° |
| 2026-04-26 02:25 | 28.89347 | 118.55935 | 33147 ft | 501 kts | 41° |
| 2026-04-26 02:26 | 28.94053 | 118.61798 | 33147 ft | 502 kts | 41° |
| 2026-04-26 02:26 | 28.98781 | 118.67698 | 33141 ft | 502 kts | 41° |
| 2026-04-26 02:27 | 29.03539 | 118.73646 | 33140 ft | 501 kts | 42° |
| 2026-04-26 02:27 | 29.08245 | 118.79537 | 33147 ft | 501 kts | 41° |
| 2026-04-26 02:28 | 29.12943 | 118.85422 | 33149 ft | 500 kts | 41° |
| 2026-04-26 02:28 | 29.17669 | 118.91357 | 33149 ft | 500 kts | 41° |
| 2026-04-26 02:29 | 29.22346 | 118.97234 | 33147 ft | 500 kts | 41° |
| 2026-04-26 02:29 | 29.27021 | 119.03123 | 33146 ft | 499 kts | 41° |
| 2026-04-26 02:30 | 29.31675 | 119.08989 | 33142 ft | 499 kts | 41° |
| 2026-04-26 02:30 | 29.36332 | 119.14873 | 33142 ft | 498 kts | 41° |
| 2026-04-26 02:31 | 29.40961 | 119.20740 | 33140 ft | 497 kts | 41° |
| 2026-04-26 02:31 | 29.45583 | 119.26610 | 33140 ft | 498 kts | 41° |
| 2026-04-26 02:32 | 29.50227 | 119.32519 | 33142 ft | 497 kts | 41° |
| 2026-04-26 02:32 | 29.54827 | 119.38380 | 33142 ft | 496 kts | 41° |
| 2026-04-26 02:33 | 29.58950 | 119.44785 | 33141 ft | 507 kts | 54° |
| 2026-04-26 02:33 | 29.61729 | 119.52356 | 33142 ft | 519 kts | 69° |
| 2026-04-26 02:34 | 29.62866 | 119.60593 | 33147 ft | 530 kts | 83° |
| 2026-04-26 02:34 | 29.62730 | 119.69052 | 33147 ft | 533 kts | 88° |
| 2026-04-26 02:35 | 29.62500 | 119.77557 | 33152 ft | 533 kts | 88° |
| 2026-04-26 02:35 | 29.62297 | 119.86075 | 33149 ft | 532 kts | 87° |
| 2026-04-26 02:36 | 29.62109 | 119.94525 | 33144 ft | 532 kts | 87° |
| 2026-04-26 02:36 | 29.61918 | 120.03040 | 33140 ft | 530 kts | 87° |
| 2026-04-26 02:37 | 29.61724 | 120.11458 | 32723 ft | 526 kts | 87° |
| 2026-04-26 02:37 | 29.61625 | 120.15642 | 32193 ft | 521 kts | 87° |
| 2026-04-26 02:37 | 29.61527 | 120.19749 | 31668 ft | 516 kts | 87° |
| 2026-04-26 02:37 | 29.61426 | 120.23874 | 31137 ft | 512 kts | 87° |
| 2026-04-26 02:38 | 29.61330 | 120.27886 | 30617 ft | 508 kts | 87° |
| 2026-04-26 02:38 | 29.61262 | 120.30794 | 30238 ft | 505 kts | 87° |
| 2026-04-26 02:38 | 29.61168 | 120.34826 | 29710 ft | 502 kts | 87° |
| 2026-04-26 02:38 | 29.61074 | 120.38831 | 29185 ft | 503 kts | 87° |
| 2026-04-26 02:39 | 29.60979 | 120.42849 | 28659 ft | 505 kts | 87° |
| 2026-04-26 02:39 | 29.60882 | 120.46912 | 28131 ft | 507 kts | 88° |
| 2026-04-26 02:39 | 29.60785 | 120.50948 | 27608 ft | 508 kts | 88° |
| 2026-04-26 02:39 | 29.60683 | 120.54993 | 27089 ft | 509 kts | 88° |
| 2026-04-26 02:40 | 29.60582 | 120.59039 | 26570 ft | 511 kts | 88° |
| 2026-04-26 02:40 | 29.60479 | 120.63120 | 26058 ft | 512 kts | 88° |
| 2026-04-26 02:40 | 29.60378 | 120.67016 | 25653 ft | 507 kts | 88° |
| 2026-04-26 02:40 | 29.60272 | 120.71008 | 25186 ft | 501 kts | 88° |
| 2026-04-26 02:41 | 29.60176 | 120.74965 | 24673 ft | 495 kts | 86° |
| 2026-04-26 02:41 | 29.60585 | 120.78804 | 24125 ft | 480 kts | 69° |
| 2026-04-26 02:41 | 29.62024 | 120.82145 | 23604 ft | 462 kts | 49° |
| 2026-04-26 02:41 | 29.64284 | 120.84621 | 23094 ft | 443 kts | 29° |
| 2026-04-26 02:42 | 29.66969 | 120.86255 | 22610 ft | 433 kts | 21° |
| 2026-04-26 02:42 | 29.69663 | 120.87774 | 22106 ft | 430 kts | 22° |
| 2026-04-26 02:42 | 29.72351 | 120.89336 | 21598 ft | 427 kts | 22° |
| 2026-04-26 02:42 | 29.74965 | 120.90894 | 21104 ft | 424 kts | 23° |
| 2026-04-26 02:43 | 29.80146 | 120.94036 | 20100 ft | 417 kts | 24° |
| 2026-04-26 02:43 | 29.82685 | 120.95592 | 19595 ft | 414 kts | 24° |
| 2026-04-26 02:43 | 29.85204 | 120.97139 | 19100 ft | 411 kts | 24° |
| 2026-04-26 02:44 | 29.87729 | 120.98690 | 18612 ft | 408 kts | 24° |
| 2026-04-26 02:44 | 29.90230 | 121.00230 | 18119 ft | 405 kts | 24° |
| 2026-04-26 02:44 | 29.92698 | 121.01751 | 17644 ft | 402 kts | 24° |
| 2026-04-26 02:44 | 29.95174 | 121.03278 | 17139 ft | 400 kts | 24° |
| 2026-04-26 02:45 | 29.97617 | 121.04782 | 16638 ft | 397 kts | 24° |
| 2026-04-26 02:45 | 29.99979 | 121.06241 | 16191 ft | 395 kts | 25° |
| 2026-04-26 02:45 | 30.02370 | 121.07720 | 15713 ft | 393 kts | 25° |
| 2026-04-26 02:45 | 30.04767 | 121.09203 | 15228 ft | 391 kts | 25° |
| 2026-04-26 02:46 | 30.07179 | 121.10696 | 14743 ft | 388 kts | 25° |
| 2026-04-26 02:46 | 30.09536 | 121.12156 | 14266 ft | 387 kts | 25° |
| 2026-04-26 02:46 | 30.11919 | 121.13634 | 13772 ft | 385 kts | 25° |
| 2026-04-26 02:46 | 30.14262 | 121.15086 | 13301 ft | 383 kts | 25° |
| 2026-04-26 02:47 | 30.16618 | 121.16550 | 12810 ft | 381 kts | 25° |
| 2026-04-26 02:47 | 30.18967 | 121.18012 | 12308 ft | 379 kts | 25° |
| 2026-04-26 02:47 | 30.21267 | 121.19440 | 11849 ft | 378 kts | 26° |
| 2026-04-26 02:47 | 30.23578 | 121.20902 | 11366 ft | 377 kts | 29° |
| 2026-04-26 02:48 | 30.25690 | 121.22803 | 10952 ft | 377 kts | 41° |
| 2026-04-26 02:48 | 30.27380 | 121.25101 | 10638 ft | 374 kts | 52° |
| 2026-04-26 02:48 | 30.28814 | 121.27582 | 10243 ft | 366 kts | 54° |
| 2026-04-26 02:48 | 30.29671 | 121.29117 | 9944 ft | 353 kts | 54° |
| 2026-04-26 02:49 | 30.30243 | 121.30149 | 9766 ft | 344 kts | 54° |
| 2026-04-26 02:49 | 30.31488 | 121.32386 | 9416 ft | 326 kts | 54° |
| 2026-04-26 02:49 | 30.32695 | 121.34535 | 9079 ft | 311 kts | 53° |
| 2026-04-26 02:49 | 30.33858 | 121.36593 | 8734 ft | 298 kts | 53° |
| 2026-04-26 02:50 | 30.34975 | 121.38560 | 8364 ft | 287 kts | 53° |
| 2026-04-26 02:50 | 30.36110 | 121.40387 | 7974 ft | 275 kts | 40° |
| 2026-04-26 02:50 | 30.37672 | 121.41507 | 7598 ft | 260 kts | 13° |
| 2026-04-26 02:50 | 30.39420 | 121.41734 | 7256 ft | 251 kts | 353° |
| 2026-04-26 02:51 | 30.41163 | 121.41544 | 6899 ft | 255 kts | 352° |
| 2026-04-26 02:51 | 30.42938 | 121.41342 | 6478 ft | 252 kts | 352° |
| 2026-04-26 02:51 | 30.44654 | 121.41152 | 6155 ft | 248 kts | 352° |
| 2026-04-26 02:51 | 30.46378 | 121.40965 | 5907 ft | 248 kts | 352° |
| 2026-04-26 02:52 | 30.48108 | 121.40779 | 5666 ft | 248 kts | 352° |
| 2026-04-26 02:52 | 30.49809 | 121.40600 | 5428 ft | 248 kts | 352° |
| 2026-04-26 02:52 | 30.51533 | 121.40418 | 5186 ft | 248 kts | 353° |
| 2026-04-26 02:52 | 30.53245 | 121.40239 | 4952 ft | 248 kts | 353° |
| 2026-04-26 02:53 | 30.54971 | 121.40060 | 4701 ft | 248 kts | 353° |
| 2026-04-26 02:53 | 30.56492 | 121.39900 | 4472 ft | 248 kts | 353° |
| 2026-04-26 02:53 | 30.58017 | 121.39742 | 4258 ft | 248 kts | 353° |
| 2026-04-26 02:53 | 30.59714 | 121.39567 | 4129 ft | 244 kts | 353° |
| 2026-04-26 02:54 | 30.61400 | 121.39392 | 4001 ft | 239 kts | 353° |
| 2026-04-26 02:54 | 30.63052 | 121.39220 | 3878 ft | 234 kts | 353° |
| 2026-04-26 02:54 | 30.64651 | 121.39053 | 3752 ft | 230 kts | 353° |
| 2026-04-26 02:54 | 30.66243 | 121.38889 | 3628 ft | 226 kts | 353° |
| 2026-04-26 02:55 | 30.67795 | 121.38727 | 3508 ft | 222 kts | 353° |
| 2026-04-26 02:55 | 30.69337 | 121.38567 | 3383 ft | 218 kts | 353° |
| 2026-04-26 02:55 | 30.70843 | 121.38411 | 3262 ft | 214 kts | 353° |
| 2026-04-26 02:55 | 30.72317 | 121.38258 | 3140 ft | 212 kts | 353° |
| 2026-04-26 02:56 | 30.73793 | 121.38103 | 3017 ft | 213 kts | 353° |
| 2026-04-26 02:56 | 30.75274 | 121.37947 | 2893 ft | 214 kts | 353° |
| 2026-04-26 02:56 | 30.76759 | 121.37791 | 2771 ft | 214 kts | 353° |
| 2026-04-26 02:56 | 30.78248 | 121.37637 | 2648 ft | 214 kts | 353° |
| 2026-04-26 02:57 | 30.79732 | 121.37481 | 2527 ft | 214 kts | 353° |
| 2026-04-26 02:57 | 30.81215 | 121.37325 | 2403 ft | 214 kts | 354° |
| 2026-04-26 02:57 | 30.82707 | 121.37170 | 2279 ft | 213 kts | 354° |
| 2026-04-26 02:57 | 30.84174 | 121.37016 | 2153 ft | 213 kts | 354° |
| 2026-04-26 02:58 | 30.85654 | 121.36834 | 2031 ft | 213 kts | 351° |
| 2026-04-26 02:58 | 30.87139 | 121.36581 | 1911 ft | 212 kts | 351° |
| 2026-04-26 02:58 | 30.88586 | 121.36330 | 1892 ft | 212 kts | 351° |
| 2026-04-26 02:58 | 30.90052 | 121.36073 | 1887 ft | 212 kts | 351° |
| 2026-04-26 02:59 | 30.91522 | 121.35817 | 1884 ft | 212 kts | 351° |
| 2026-04-26 02:59 | 30.92995 | 121.35561 | 1880 ft | 213 kts | 351° |
| 2026-04-26 02:59 | 30.94459 | 121.35307 | 1880 ft | 213 kts | 350° |
| 2026-04-26 02:59 | 30.95943 | 121.35048 | 1881 ft | 214 kts | 350° |
| 2026-04-26 03:00 | 30.97439 | 121.34849 | 1882 ft | 215 kts | 355° |
| 2026-04-26 03:00 | 30.98911 | 121.34757 | 1881 ft | 208 kts | 356° |
| 2026-04-26 03:00 | 31.00331 | 121.34682 | 1872 ft | 197 kts | 356° |
| 2026-04-26 03:00 | 31.01664 | 121.34614 | 1864 ft | 186 kts | 356° |
| 2026-04-26 03:01 | 31.02928 | 121.34547 | 1876 ft | 174 kts | 356° |
| 2026-04-26 03:01 | 31.04104 | 121.34483 | 1869 ft | 161 kts | 356° |
| 2026-04-26 03:01 | 31.05220 | 121.34422 | 1878 ft | 161 kts | 356° |
| 2026-04-26 03:01 | 31.06354 | 121.34360 | 1880 ft | 162 kts | 356° |
| 2026-04-26 03:02 | 31.07478 | 121.34298 | 1885 ft | 163 kts | 356° |
| 2026-04-26 03:02 | 31.08625 | 121.34236 | 1852 ft | 163 kts | 356° |
| 2026-04-26 03:02 | 31.09757 | 121.34174 | 1651 ft | 163 kts | 356° |
| 2026-04-26 03:02 | 31.10900 | 121.34112 | 1444 ft | 163 kts | 356° |
| 2026-04-26 03:03 | 31.12039 | 121.34051 | 1239 ft | 163 kts | 356° |
| 2026-04-26 03:03 | 31.13166 | 121.33989 | 1027 ft | 162 kts | 356° |
| 2026-04-26 03:03 | 31.14299 | 121.33928 | 815 ft | 161 kts | 356° |
| 2026-04-26 03:03 | 31.15412 | 121.33868 | 606 ft | 161 kts | 356° |
| 2026-04-26 03:04 | 31.16538 | 121.33807 | 400 ft | 160 kts | 356° |
| 2026-04-26 03:04 | 31.17651 | 121.33747 | 183 ft | 157 kts | 357° |
| 2026-04-26 03:04 | 31.18710 | 121.33692 | 32 ft | 148 kts | 357° |
| 2026-04-26 03:04 | 31.19640 | 121.33639 | 23 ft | 113 kts | 356° |
| 2026-04-26 03:05 | 31.20258 | 121.33606 | 23 ft | 62 kts | 357° |
| 2026-04-26 03:05 | 31.20500 | 121.33633 | 23 ft | 10 kts | 42° |
| 2026-04-26 03:05 | 31.20546 | 121.33674 | 23 ft | 8 kts | 31° |
| 2026-04-26 03:05 | 31.20603 | 121.33711 | 23 ft | 10 kts | 28° |
| 2026-04-26 03:06 | 31.20669 | 121.33754 | 23 ft | 11 kts | 38° |
| 2026-04-26 03:06 | 31.20669 | 121.33827 | 23 ft | 10 kts | 145° |
| 2026-04-26 03:06 | 31.20592 | 121.33843 | 23 ft | 12 kts | 175° |
| 2026-04-26 03:06 | 31.20505 | 121.33848 | 23 ft | 12 kts | 179° |
| 2026-04-26 03:07 | 31.20411 | 121.33850 | 23 ft | 13 kts | 178° |
| 2026-04-26 03:07 | 31.20311 | 121.33854 | 23 ft | 14 kts | 178° |
| 2026-04-26 03:07 | 31.20206 | 121.33858 | 23 ft | 15 kts | 178° |
| 2026-04-26 03:07 | 31.20097 | 121.33866 | 23 ft | 15 kts | 175° |
| 2026-04-26 03:08 | 31.19985 | 121.33874 | 23 ft | 16 kts | 176° |
| 2026-04-26 03:08 | 31.19917 | 121.33883 | 23 ft | 6 kts | 154° |
| 2026-04-26 03:08 | 31.19896 | 121.33934 | 23 ft | 8 kts | 92° |
| 2026-04-26 03:08 | 31.19902 | 121.34005 | 23 ft | 9 kts | 84° |
| 2026-04-26 03:09 | 31.19907 | 121.34089 | 23 ft | 10 kts | 87° |
| 2026-04-26 03:09 | 31.19906 | 121.34166 | 23 ft | 6 kts | 104° |
| 2026-04-26 03:09 | 31.19898 | 121.34186 | 23 ft | 1 kts | 128° |
| 2026-04-26 03:09 | 31.19888 | 121.34193 | 23 ft | 2 kts | 158° |
| 2026-04-26 03:10 | 31.19864 | 121.34195 | 23 ft | 4 kts | 178° |
| 2026-04-26 03:10 | 31.19826 | 121.34197 | 23 ft | 0 kts | 176° |